Hallock, MN

11:46 AM CDT on August 02, 2015 (GMT -0500)
Hallock Municipal | | Change Station
CLOSE
Current Station
Airport
Location: Hallock,
Elevation: 820 ft
Nearby Weather Stations

Elev 820 ft 48.75 °N, 96.94 °W | Updated 12 minutes ago

Clear
Clear
72 °F
Feels Like 72 °F
N
18
Wind Variable Wind from NNW

Today
High -- | Low -- °F
--% Chance of Precip.
Yesterday
High -- | Low -- °F
Precip. -- in
6:02 AM 9:04 PM
Waning Gibbous, 93% visible
Pressure 29.80 in
Visibility 10.0 miles
Clouds Scattered Clouds 6000 ft
Dew Point 48 °F
Humidity 43%
Rainfall 0.16 in
Snow Depth Not available.
UV 6 out of 12
Pollen 8.20 out of 12
Air Quality Not available.
Flu Activity Not available.
METAR KHCO 021634Z AUTO 34016KT 10SM SCT060 22/09 A2980 RMK AO2

More Conditions Fewer Conditions

Pressure 29.80 in
Visibility 10.0 miles
Clouds Scattered Clouds 6000 ft
Dew Point 48 °F
Humidity 43%
Rainfall 0.16 in
Snow Depth Not available.
UV 6 out of 12
Pollen 8.20 out of 12
Air Quality Not available.
Flu Activity Not available.
METAR KHCO 021634Z AUTO 34016KT 10SM SCT060 22/09 A2980 RMK AO2

More Conditions Fewer Conditions

10-Day Weather Forecast

×

Almanac

Astronomy

Aug. 02, 2015 Rise Set
Actual Time
Civil Twilight
Nautical Twilight
Astronomical Twilight
Moon
Length of Visible Light
Length of Day
Tomorrow will be .
, % of the Moon is Illuminated

Today's Extremes

State Highs State Lows

Community

WunderPhotos

Upload Photos

1,843,313 photos uploaded!

WunderBlogs® & News

Nearby

Air Quality

  Air Quality AQ Index Pollutant
Not available.

Snow Depth

Station Depth Elevation

Earthquake Activity

City Distance Mag. Time & Date
Minimum magnitude displayed is 2.5.

Coastal Water Temperatures

Place Temperature

Stations

Nearby Weather Stations

Station Location Temp. Windchill Dew Point Humidity Wind Precip. Elev Updated Type